Time;durP1;ratioP1;P1;durP2;ratioP2;P2;SDS_P1;SDS_P2;PMS_P1;PMS_P2;Temp;Humidity;BMP_temperature;BMP_pressure;BME280_temperature;BME280_humidity;BME280_pressure;Samples;Min_cycle;Max_cycle;Signal;HPM_P1;HPM_P2
2022/06/28 00:00:22;;;;;;;23.70;20.45;;;13.80;99.90;;;;;;4992080;28;20484;-90
2022/06/28 00:02:47;;;;;;;23.60;19.85;;;13.80;99.90;;;;;;4975213;28;20062;-89
2022/06/28 00:05:13;;;;;;;25.58;20.85;;;13.80;99.90;;;;;;4984926;28;20082;-88
2022/06/28 00:07:39;;;;;;;23.90;19.27;;;13.80;99.90;;;;;;4993872;28;20050;-88
2022/06/28 00:10:05;;;;;;;24.13;20.05;;;13.70;99.90;;;;;;5003475;28;20061;-91
2022/06/28 00:12:31;;;;;;;23.58;19.77;;;13.60;99.90;;;;;;4998183;28;20150;-91
2022/06/28 00:17:42;;;;;;;24.58;19.55;;;13.60;99.90;;;;;;4968498;28;20054;-89
2022/06/28 00:20:10;;;;;;;23.38;19.00;;;13.60;99.90;;;;;;4995680;28;20057;-91
2022/06/28 00:22:35;;;;;;;23.52;19.58;;;13.60;99.90;;;;;;4995013;28;20062;-90
2022/06/28 00:25:01;;;;;;;20.88;18.67;;;13.50;99.90;;;;;;4980608;28;20113;-90
2022/06/28 00:27:27;;;;;;;25.10;18.83;;;13.50;99.90;;;;;;4997269;28;20830;-89
2022/06/28 00:29:52;;;;;;;22.38;19.55;;;13.50;99.90;;;;;;4996981;28;20054;-89
2022/06/28 00:32:18;;;;;;;25.08;20.17;;;13.50;99.90;;;;;;4980676;28;20046;-91
2022/06/28 00:34:44;;;;;;;24.35;20.88;;;13.50;99.90;;;;;;4980590;28;20136;-89
2022/06/28 00:37:10;;;;;;;25.75;21.13;;;13.40;99.90;;;;;;4995587;28;20479;-89
2022/06/28 00:39:35;;;;;;;25.10;20.27;;;13.40;99.90;;;;;;4996386;28;20049;-89
2022/06/28 00:42:10;;;;;;;21.80;19.30;;;13.40;99.90;;;;;;4979988;28;20507;-88
2022/06/28 00:44:38;;;;;;;25.65;20.70;;;13.40;99.90;;;;;;4996379;28;20058;-89
2022/06/28 00:47:04;;;;;;;23.98;21.38;;;13.50;99.90;;;;;;4931114;28;20061;-90
2022/06/28 00:49:30;;;;;;;27.27;21.60;;;13.30;99.90;;;;;;4962724;28;20054;-89
2022/06/28 00:51:58;;;;;;;24.42;20.35;;;13.40;99.90;;;;;;4979212;28;20502;-90
2022/06/28 00:54:24;;;;;;;22.70;20.25;;;13.30;99.90;;;;;;4978994;28;20053;-89
2022/06/28 00:56:50;;;;;;;27.63;22.20;;;13.30;99.90;;;;;;4962512;28;20050;-90
2022/06/28 00:59:15;;;;;;;23.90;20.65;;;13.30;99.90;;;;;;4962292;28;20046;-89
2022/06/28 01:01:47;;;;;;;27.75;21.48;;;13.30;99.90;;;;;;4996251;28;20042;-89
2022/06/28 01:04:13;;;;;;;25.33;21.55;;;13.30;99.90;;;;;;4994365;28;20403;-90
2022/06/28 01:06:38;;;;;;;26.92;22.20;;;13.30;99.90;;;;;;4962474;28;20062;-90
2022/06/28 01:09:04;;;;;;;26.70;21.95;;;13.30;99.90;;;;;;4946551;28;20121;-89
2022/06/28 01:11:30;;;;;;;30.10;21.13;;;13.30;99.90;;;;;;4946307;28;20498;-90
2022/06/28 01:13:58;;;;;;;24.67;21.92;;;13.20;99.90;;;;;;4978617;28;20054;-89
2022/06/28 01:16:24;;;;;;;27.38;22.30;;;13.20;99.90;;;;;;4946155;28;20110;-89
2022/06/28 01:18:50;;;;;;;24.50;21.75;;;13.20;99.90;;;;;;4945794;28;20133;-89
2022/06/28 01:21:23;;;;;;;26.70;21.50;;;13.20;99.90;;;;;;4977895;28;20562;-90
2022/06/28 01:23:49;;;;;;;24.60;20.52;;;13.20;99.90;;;;;;4978456;28;20438;-88
2022/06/28 01:26:19;;;;;;;27.83;21.33;;;13.20;99.90;;;;;;4978540;28;20054;-89
2022/06/28 01:28:45;;;;;;;27.10;22.77;;;13.20;99.90;;;;;;4980317;28;20030;-89
2022/06/28 01:31:11;;;;;;;23.83;21.10;;;13.20;99.90;;;;;;4999930;28;20085;-89
2022/06/28 01:33:38;;;;;;;26.25;21.98;;;13.30;99.90;;;;;;4964952;28;20340;-89
2022/06/28 01:36:05;;;;;;;23.73;21.27;;;13.20;99.90;;;;;;4967887;28;20050;-90
2022/06/28 01:38:31;;;;;;;27.77;21.45;;;13.10;99.90;;;;;;4945861;28;20402;-89
2022/06/28 01:40:57;;;;;;;23.73;19.70;;;13.20;99.90;;;;;;4983199;28;20061;-89
2022/06/28 01:43:22;;;;;;;27.95;23.23;;;13.20;99.90;;;;;;4962679;28;20510;-89
2022/06/28 01:45:49;;;;;;;23.27;20.20;;;13.20;99.90;;;;;;4977429;28;20110;-90
2022/06/28 01:48:18;;;;;;;23.33;20.13;;;13.10;99.90;;;;;;4993403;28;20509;-89
2022/06/28 01:50:44;;;;;;;26.17;20.58;;;13.10;99.90;;;;;;4978052;28;20062;-89
2022/06/28 01:53:10;;;;;;;22.67;20.17;;;13.10;99.90;;;;;;4994223;28;20040;-89
2022/06/28 01:55:35;;;;;;;25.80;22.02;;;13.10;99.90;;;;;;4993486;28;20140;-88
2022/06/28 01:58:04;;;;;;;27.05;21.60;;;13.00;99.90;;;;;;4961628;28;20053;-89
2022/06/28 02:00:29;;;;;;;23.10;20.63;;;13.00;99.90;;;;;;4977768;28;20042;-88
2022/06/28 02:02:56;;;;;;;25.88;22.15;;;13.00;99.90;;;;;;4978445;28;20081;-89
2022/06/28 02:05:21;;;;;;;25.15;21.25;;;13.00;99.90;;;;;;4961607;28;20509;-89
2022/06/28 02:07:49;;;;;;;24.77;21.67;;;13.00;99.90;;;;;;4945373;28;20050;-89
2022/06/28 02:10:15;;;;;;;29.45;21.83;;;12.90;99.90;;;;;;4994657;28;20096;-89
2022/06/28 02:12:41;;;;;;;24.67;20.90;;;12.90;99.90;;;;;;4993335;28;20051;-89
2022/06/28 02:15:07;;;;;;;25.00;21.55;;;12.90;99.90;;;;;;4993477;28;20057;-88
2022/06/28 02:17:38;;;;;;;25.30;22.58;;;12.90;99.90;;;;;;4978265;28;20454;-89
2022/06/28 02:20:04;;;;;;;26.17;20.08;;;12.90;99.90;;;;;;4977615;28;20074;-89
2022/06/28 02:22:30;;;;;;;24.35;21.55;;;12.80;99.90;;;;;;4993142;28;20398;-90
2022/06/28 02:24:56;;;;;;;23.05;20.50;;;12.80;99.90;;;;;;4960937;28;20057;-88
2022/06/28 02:27:21;;;;;;;25.52;22.40;;;12.80;99.90;;;;;;4977112;28;20058;-89
2022/06/28 02:29:47;;;;;;;25.52;20.38;;;12.80;99.90;;;;;;4992763;28;20495;-89
2022/06/28 02:32:13;;;;;;;24.70;21.77;;;12.80;99.90;;;;;;4976929;28;20104;-89
2022/06/28 02:40:27;;;;;;;;;;;12.70;99.90;;;;;;4967378;28;20094;-88
2022/06/28 02:42:56;;;;;;;23.10;20.60;;;12.70;99.90;;;;;;4999456;28;19909;-89
2022/06/28 02:45:23;;;;;;;28.52;22.38;;;12.70;99.90;;;;;;5016937;28;20038;-89
2022/06/28 02:47:49;;;;;;;23.27;19.58;;;12.60;99.90;;;;;;4997888;28;20037;-90
2022/06/28 02:50:14;;;;;;;22.45;19.73;;;12.60;99.90;;;;;;5001147;28;20058;-90
2022/06/28 02:52:40;;;;;;;24.83;21.38;;;12.60;99.90;;;;;;4984330;28;20086;-90
2022/06/28 02:55:06;;;;;;;24.63;21.95;;;13.00;99.90;;;;;;5001038;28;20030;-89
2022/06/28 02:57:33;;;;;;;27.13;20.17;;;12.60;99.90;;;;;;4975704;28;20046;-89
2022/06/28 02:59:59;;;;;;;28.98;21.48;;;12.60;99.90;;;;;;4931100;28;20151;-89
2022/06/28 03:02:25;;;;;;;24.85;20.15;;;12.60;99.90;;;;;;4946487;28;20085;-89
2022/06/28 03:04:50;;;;;;;28.33;20.55;;;12.60;99.90;;;;;;4961593;28;20113;-89
2022/06/28 03:07:17;;;;;;;27.20;20.95;;;12.50;99.90;;;;;;4978332;28;20057;-88
2022/06/28 03:09:44;;;;;;;26.08;21.45;;;12.60;99.90;;;;;;4994446;28;20050;-88
2022/06/28 03:12:10;;;;;;;22.98;20.40;;;12.60;99.90;;;;;;4994779;28;20097;-88
2022/06/28 03:14:36;;;;;;;27.63;20.92;;;12.50;99.90;;;;;;4976684;28;20050;-88
2022/06/28 03:17:02;;;;;;;27.55;21.50;;;12.50;99.90;;;;;;4961445;28;20038;-88
2022/06/28 03:19:27;;;;;;;26.45;21.77;;;12.60;99.90;;;;;;4960839;28;20046;-88
2022/06/28 03:21:53;;;;;;;26.23;20.55;;;12.50;99.90;;;;;;4944164;28;20153;-89
2022/06/28 03:24:19;;;;;;;27.63;22.30;;;12.50;99.90;;;;;;4960416;28;20057;-90
2022/06/28 03:26:45;;;;;;;25.83;21.58;;;12.50;99.90;;;;;;4960347;28;20058;-90
2022/06/28 03:29:10;;;;;;;25.13;19.63;;;12.60;99.90;;;;;;4963385;28;20050;-89
2022/06/28 03:31:36;;;;;;;23.42;19.02;;;12.50;99.90;;;;;;4962850;28;20061;-89
2022/06/28 03:34:02;;;;;;;25.48;20.35;;;12.50;99.90;;;;;;4960118;28;20133;-88
2022/06/28 03:36:28;;;;;;;24.58;21.35;;;12.50;99.90;;;;;;4975993;28;20125;-89
2022/06/28 03:38:53;;;;;;;24.63;21.10;;;12.50;99.90;;;;;;4975261;28;20498;-89
2022/06/28 03:41:25;;;;;;;27.73;21.50;;;12.50;99.90;;;;;;4975629;28;20054;-89
2022/06/28 03:43:51;;;;;;;25.75;19.02;;;12.50;99.90;;;;;;4975329;28;20093;-88
2022/06/28 03:46:17;;;;;;;24.42;19.05;;;12.60;99.90;;;;;;4928249;28;20485;-90
2022/06/28 03:48:43;;;;;;;23.85;19.52;;;12.70;99.90;;;;;;4959317;28;20038;-88
2022/06/28 03:51:09;;;;;;;24.73;19.02;;;12.80;99.90;;;;;;4975774;28;20402;-89
2022/06/28 03:53:35;;;;;;;25.90;18.75;;;13.00;99.90;;;;;;4960017;28;20057;-89
2022/06/28 03:56:01;;;;;;;23.10;18.08;;;13.00;99.90;;;;;;4959302;28;20047;-88
2022/06/28 03:58:26;;;;;;;20.02;17.05;;;13.10;99.90;;;;;;4959531;28;20034;-89
2022/06/28 04:00:52;;;;;;;23.42;17.92;;;13.10;99.90;;;;;;4975389;28;20462;-88
2022/06/28 04:03:18;;;;;;;21.75;18.10;;;13.20;99.90;;;;;;4959432;28;20108;-88
2022/06/28 04:05:44;;;;;;;24.20;18.73;;;13.20;99.90;;;;;;4959297;28;20490;-89
2022/06/28 04:08:10;;;;;;;18.27;15.93;;;13.20;99.90;;;;;;4943435;28;20137;-89
2022/06/28 04:10:35;;;;;;;19.58;16.23;;;13.10;99.90;;;;;;4998691;28;20066;-89
2022/06/28 04:13:01;;;;;;;22.27;17.23;;;13.20;99.90;;;;;;4978300;28;20057;-89
2022/06/28 04:15:27;;;;;;;19.98;16.20;;;13.20;99.90;;;;;;4980016;28;20042;-90
2022/06/28 04:17:52;;;;;;;19.98;16.17;;;13.30;99.90;;;;;;4982796;28;20039;-89
2022/06/28 04:20:18;;;;;;;21.33;15.10;;;13.30;99.90;;;;;;4982679;28;20030;-89
2022/06/28 04:22:44;;;;;;;20.40;16.27;;;13.30;99.90;;;;;;4959863;28;20046;-89
2022/06/28 04:25:09;;;;;;;18.27;15.00;;;13.20;99.90;;;;;;4959691;28;20094;-87
2022/06/28 04:27:35;;;;;;;17.60;15.73;;;13.30;99.90;;;;;;4959057;28;20061;-89
2022/06/28 04:30:03;;;;;;;19.15;16.20;;;13.30;99.90;;;;;;4942999;28;20223;-89
2022/06/28 04:32:29;;;;;;;18.35;14.15;;;13.30;99.90;;;;;;4975814;28;20120;-89
2022/06/28 04:34:55;;;;;;;21.92;15.57;;;13.30;99.90;;;;;;4959098;28;20072;-90
2022/06/28 04:37:21;;;;;;;20.75;14.20;;;13.40;99.90;;;;;;4979545;28;20133;-90
2022/06/28 04:39:46;;;;;;;17.25;13.57;;;13.50;99.90;;;;;;4964202;28;20132;-88
2022/06/28 04:42:12;;;;;;;17.50;13.45;;;13.70;99.90;;;;;;4992756;28;20463;-90
2022/06/28 04:44:38;;;;;;;13.13;11.30;;;14.50;99.90;;;;;;4970475;28;20062;-90
2022/06/28 04:47:04;;;;;;;11.90;10.73;;;15.20;99.90;;;;;;4964933;28;20065;-88
2022/06/28 04:49:30;;;;;;;11.80;9.45;;;15.90;99.90;;;;;;4992312;28;20062;-88
2022/06/28 04:51:55;;;;;;;11.10;8.57;;;16.70;99.90;;;;;;4975955;28;20089;-89
2022/06/28 04:54:21;;;;;;;14.27;8.40;;;17.30;99.90;;;;;;4977063;28;20081;-89
2022/06/28 04:56:47;;;;;;;10.43;7.78;;;17.80;99.90;;;;;;4994832;28;20050;-90
2022/06/28 04:59:12;;;;;;;8.23;6.93;;;18.20;99.90;;;;;;4978395;28;20053;-89
2022/06/28 05:01:38;;;;;;;10.45;8.05;;;18.30;99.90;;;;;;4995120;28;20539;-89
2022/06/28 05:04:04;;;;;;;11.35;7.18;;;18.70;99.90;;;;;;4994444;28;20077;-89
2022/06/28 05:06:30;;;;;;;12.80;7.70;;;18.80;99.90;;;;;;4995081;28;20053;-89
2022/06/28 05:08:58;;;;;;;10.90;7.05;;;19.30;99.90;;;;;;4994546;28;20418;-89
2022/06/28 05:11:24;;;;;;;9.00;7.07;;;19.60;99.90;;;;;;4996015;28;20498;-88
2022/06/28 05:13:50;;;;;;;11.02;7.13;;;19.90;99.90;;;;;;4961917;28;20047;-89
2022/06/28 05:16:19;;;;;;;9.27;6.65;;;19.60;99.90;;;;;;4994788;28;20069;-90
2022/06/28 05:18:44;;;;;;;9.07;6.57;;;20.20;99.90;;;;;;4983545;28;20038;-89
2022/06/28 05:21:10;;;;;;;8.02;6.00;;;20.70;99.90;;;;;;4979365;28;20053;-90
2022/06/28 05:23:37;;;;;;;10.82;6.30;;;20.60;99.90;;;;;;4995545;28;20052;-91
2022/06/28 05:26:03;;;;;;;9.35;6.70;;;20.80;99.90;;;;;;4978238;28;20510;-91
2022/06/28 05:28:29;;;;;;;9.98;6.35;;;20.60;99.90;;;;;;4978114;28;20085;-91
2022/06/28 05:30:54;;;;;;;6.57;5.90;;;20.80;99.90;;;;;;4994122;28;20054;-90
2022/06/28 05:33:20;;;;;;;7.43;5.90;;;20.80;99.90;;;;;;5000475;28;20058;-90
2022/06/28 05:35:47;;;;;;;8.65;6.20;;;21.00;99.90;;;;;;4985975;28;20061;-90
2022/06/28 05:38:13;;;;;;;6.20;5.10;;;20.30;99.90;;;;;;5018201;28;20030;-90
2022/06/28 05:40:38;;;;;;;8.98;6.07;;;21.10;99.90;;;;;;5000462;28;20043;-89
2022/06/28 05:43:04;;;;;;;8.65;6.57;;;21.10;99.90;;;;;;4961851;28;20046;-90
2022/06/28 05:45:30;;;;;;;7.18;5.85;;;21.00;99.90;;;;;;4980279;28;20058;-89
2022/06/28 05:47:55;;;;;;;9.02;5.75;;;21.60;99.90;;;;;;4993937;28;20066;-89
2022/06/28 05:50:21;;;;;;;9.55;6.07;;;21.60;99.90;;;;;;4962064;28;20411;-89
2022/06/28 05:52:47;;;;;;;11.27;5.20;;;21.10;99.90;;;;;;4963036;28;20054;-91
2022/06/28 05:55:13;;;;;;;6.82;4.97;;;21.80;99.90;;;;;;4993763;28;20046;-90
2022/06/28 05:57:39;;;;;;;8.23;5.50;;;22.20;99.90;;;;;;4978007;28;20050;-90
2022/06/28 06:00:05;;;;;;;11.00;5.68;;;21.90;99.90;;;;;;4981177;28;20046;-89
2022/06/28 06:02:31;;;;;;;10.00;5.45;;;21.20;99.90;;;;;;4963247;28;20054;-90
2022/06/28 06:04:59;;;;;;;8.10;5.10;;;21.10;99.90;;;;;;4994529;28;20053;-89
2022/06/28 06:07:25;;;;;;;9.45;4.90;;;21.00;99.90;;;;;;4979507;28;20100;-90
2022/06/28 06:09:50;;;;;;;11.02;6.00;;;20.40;99.90;;;;;;4996039;28;20038;-90
2022/06/28 06:12:16;;;;;;;9.77;5.70;;;20.20;99.90;;;;;;4994440;28;20052;-89
2022/06/28 06:14:42;;;;;;;8.68;5.45;;;20.10;99.90;;;;;;5009015;28;20058;-89
2022/06/28 06:17:08;;;;;;;7.40;5.97;;;20.50;99.90;;;;;;5015885;28;20526;-89
2022/06/28 06:19:34;;;;;;;7.40;5.43;;;21.20;99.90;;;;;;4976525;28;20049;-89
2022/06/28 06:21:59;;;;;;;10.43;5.20;;;22.00;99.90;;;;;;4992152;28;20047;-89
2022/06/28 06:24:25;;;;;;;8.05;4.97;;;22.50;99.90;;;;;;4972563;28;20057;-89
2022/06/28 06:26:50;;;;;;;9.95;4.95;;;22.50;99.90;;;;;;4997464;28;20051;-91
2022/06/28 06:29:17;;;;;;;12.85;4.38;;;23.00;99.90;;;;;;4994067;28;20046;-90
2022/06/28 06:31:43;;;;;;;9.63;4.53;;;22.70;99.90;;;;;;5000807;28;20057;-90
2022/06/28 06:34:09;;;;;;;6.22;3.88;;;23.10;99.90;;;;;;4995136;28;20081;-88
2022/06/28 06:36:35;;;;;;;6.97;3.67;;;23.50;99.90;;;;;;5004778;28;20510;-89
2022/06/28 06:39:01;;;;;;;7.78;3.60;;;23.10;99.90;;;;;;5002589;28;20169;-87
2022/06/28 06:41:26;;;;;;;7.22;3.03;;;23.50;99.90;;;;;;5003522;28;20054;-88
2022/06/28 06:43:53;;;;;;;7.97;3.40;;;24.00;99.90;;;;;;4960554;28;20057;-89
2022/06/28 06:46:41;;;;;;;10.30;3.35;;;23.70;99.90;;;;;;4997930;28;20061;-89
2022/06/28 06:49:09;;;;;;;10.38;3.30;;;24.10;99.90;;;;;;4995985;28;20457;-85
2022/06/28 06:51:35;;;;;;;5.55;2.90;;;23.60;99.90;;;;;;4974224;28;20793;-87
2022/06/28 06:54:01;;;;;;;7.50;3.53;;;24.10;99.90;;;;;;5028048;28;20030;-92
2022/06/28 06:56:27;;;;;;;8.68;2.90;;;23.70;99.90;;;;;;5015422;28;20058;-89
2022/06/28 06:58:53;;;;;;;6.63;2.85;;;24.30;99.90;;;;;;5025487;28;20046;-90
2022/06/28 07:01:19;;;;;;;8.32;2.72;;;24.20;99.90;;;;;;5000891;28;20053;-87
2022/06/28 07:03:45;;;;;;;8.32;3.28;;;24.30;99.90;;;;;;4985825;28;20050;-89
2022/06/28 07:06:12;;;;;;;7.50;3.65;;;23.90;99.90;;;;;;5002442;28;20069;-86
2022/06/28 07:08:38;;;;;;;7.05;3.30;;;23.80;99.90;;;;;;4987371;28;20038;-88
2022/06/28 07:11:04;;;;;;;8.30;3.30;;;23.90;99.90;;;;;;4990048;28;20046;-87
2022/06/28 07:13:30;;;;;;;8.40;3.55;;;23.90;99.90;;;;;;5002062;28;20039;-88
2022/06/28 07:15:56;;;;;;;8.82;3.47;;;24.40;99.90;;;;;;5002692;28;20060;-87
2022/06/28 07:18:21;;;;;;;7.75;3.70;;;23.40;99.90;;;;;;4984661;28;20045;-87
2022/06/28 07:20:47;;;;;;;7.65;3.25;;;23.40;99.90;;;;;;5006072;28;20133;-87
2022/06/28 07:23:13;;;;;;;12.52;3.58;;;23.30;99.90;;;;;;5011815;28;20133;-85
2022/06/28 07:25:38;;;;;;;5.85;3.20;;;23.10;99.90;;;;;;5009510;28;20046;-85
2022/06/28 07:28:04;;;;;;;7.75;3.53;;;22.40;99.90;;;;;;5001758;28;20042;-89
2022/06/28 07:30:30;;;;;;;10.57;4.15;;;22.60;99.90;;;;;;5005684;28;20046;-89
2022/06/28 07:32:55;;;;;;;7.47;3.50;;;23.30;99.90;;;;;;4971571;28;20402;-88
2022/06/28 07:35:24;;;;;;;6.03;3.30;;;24.00;99.90;;;;;;5006925;28;20066;-89
2022/06/28 07:37:51;;;;;;;6.07;3.13;;;23.10;99.90;;;;;;5001820;28;20054;-87
2022/06/28 07:40:19;;;;;;;5.75;3.08;;;22.80;99.90;;;;;;4999854;28;20038;-87
2022/06/28 07:42:46;;;;;;;7.05;3.40;;;22.40;99.90;;;;;;5006399;28;20401;-89
2022/06/28 07:45:12;;;;;;;8.38;3.50;;;21.70;99.90;;;;;;5007273;28;20125;-89
2022/06/28 07:47:38;;;;;;;10.02;3.72;;;21.00;99.90;;;;;;4970775;28;20410;-88
2022/06/28 07:52:48;;;;;;;9.45;3.20;;;20.60;99.90;;;;;;4999064;28;20054;-91
2022/06/28 07:55:14;;;;;;;10.18;3.40;;;21.10;99.90;;;;;;4983939;28;20045;-90
2022/06/28 07:57:40;;;;;;;8.32;2.90;;;20.70;99.90;;;;;;4987981;28;20050;-90
2022/06/28 08:00:06;;;;;;;7.15;2.67;;;21.10;99.90;;;;;;5002876;28;20038;-87
2022/06/28 08:02:32;;;;;;;7.97;3.00;;;21.40;99.90;;;;;;5006762;28;20046;-87
2022/06/28 08:04:58;;;;;;;8.00;2.80;;;22.30;99.90;;;;;;5008850;28;20115;-88
2022/06/28 08:07:23;;;;;;;7.60;2.95;;;22.40;99.90;;;;;;4999317;28;20054;-87
2022/06/28 08:09:49;;;;;;;8.35;2.95;;;22.70;99.90;;;;;;4993156;28;20063;-89
2022/06/28 08:12:15;;;;;;;9.77;2.92;;;23.00;99.90;;;;;;4979188;28;20049;-91
2022/06/28 08:14:41;;;;;;;7.28;3.05;;;23.30;99.90;;;;;;5017332;28;20042;-88
2022/06/28 08:17:07;;;;;;;11.55;3.42;;;22.70;99.90;;;;;;5018366;28;20436;-86
2022/06/28 08:19:33;;;;;;;6.45;2.92;;;23.10;99.90;;;;;;5025268;28;20037;-89
2022/06/28 08:21:59;;;;;;;7.22;2.38;;;22.90;99.90;;;;;;4971690;28;20050;-86
2022/06/28 08:24:25;;;;;;;6.43;2.45;;;21.70;99.90;;;;;;5005895;28;20050;-87
2022/06/28 08:26:52;;;;;;;7.70;2.58;;;21.70;99.90;;;;;;4969943;28;20490;-87
2022/06/28 08:29:18;;;;;;;6.18;2.20;;;22.00;99.90;;;;;;5004380;28;20063;-85
2022/06/28 08:31:44;;;;;;;8.15;2.25;;;22.90;99.90;;;;;;5012043;28;20054;-88
2022/06/28 08:34:10;;;;;;;7.32;2.63;;;23.30;99.90;;;;;;4995545;28;20478;-86
2022/06/28 08:36:38;;;;;;;8.05;2.90;;;22.90;99.90;;;;;;5021375;28;20128;-87
2022/06/28 08:39:04;;;;;;;4.95;1.98;;;22.40;99.90;;;;;;5004964;28;20132;-87
2022/06/28 08:41:32;;;;;;;6.55;1.77;;;22.00;99.90;;;;;;4991908;28;20046;-86
2022/06/28 08:43:58;;;;;;;4.05;1.88;;;22.40;99.90;;;;;;4985397;28;20053;-87
2022/06/28 08:46:26;;;;;;;6.50;1.88;;;22.60;99.90;;;;;;5000338;28;20046;-86
2022/06/28 08:48:53;;;;;;;5.63;2.35;;;23.60;99.90;;;;;;5005868;28;20486;-88
2022/06/28 08:51:21;;;;;;;7.03;2.28;;;24.00;99.90;;;;;;4998795;28;20619;-87
2022/06/28 08:53:50;;;;;;;4.57;1.98;;;24.00;99.90;;;;;;4985041;28;20441;-87
2022/06/28 08:56:15;;;;;;;6.60;2.10;;;24.60;99.90;;;;;;4991758;28;20081;-88
2022/06/28 08:58:42;;;;;;;7.95;2.28;;;24.20;99.90;;;;;;4984296;28;20078;-89
2022/06/28 09:01:12;;;;;;;6.15;1.80;;;22.90;99.90;;;;;;4963357;28;20097;-87
2022/06/28 09:03:37;;;;;;;5.70;2.30;;;22.80;99.90;;;;;;4994627;28;20069;-87
2022/06/28 09:06:04;;;;;;;4.60;1.75;;;23.20;99.90;;;;;;4979296;28;20050;-88
2022/06/28 09:08:29;;;;;;;7.88;2.10;;;22.90;99.90;;;;;;4995030;28;20061;-90
2022/06/28 09:10:55;;;;;;;5.47;1.80;;;23.80;99.90;;;;;;4985937;28;20047;-87
2022/06/28 09:13:23;;;;;;;5.40;1.70;;;24.20;99.90;;;;;;5008269;28;20050;-90
2022/06/28 09:15:53;;;;;;;4.00;1.50;;;24.60;99.90;;;;;;4983096;28;20511;-90
2022/06/28 09:18:24;;;;;;;6.32;1.48;;;24.60;99.90;;;;;;5002058;28;20125;-89
2022/06/28 09:20:52;;;;;;;6.43;2.00;;;24.70;99.90;;;;;;4990630;28;20489;-90
2022/06/28 09:23:23;;;;;;;3.70;1.80;;;24.30;99.90;;;;;;4972774;28;20077;-88
2022/06/28 09:25:49;;;;;;;6.93;2.00;;;23.40;99.90;;;;;;4968990;28;20049;-91
2022/06/28 09:28:31;;;;;;;6.30;2.00;;;24.00;99.90;;;;;;4976373;28;20500;-87
2022/06/28 09:31:40;;;;;;;3.97;1.83;;;24.70;99.90;;;;;;5004315;28;20049;-88
2022/06/28 09:34:08;;;;;;;6.18;2.03;;;25.40;99.90;;;;;;5009472;28;20081;-86
2022/06/28 09:36:48;;;;;;;4.07;1.80;;;26.10;99.90;;;;;;5005064;28;20049;-85
2022/06/28 09:39:17;;;;;;;5.85;2.42;;;26.30;99.90;;;;;;5007866;28;20050;-88
2022/06/28 09:41:47;;;;;;;7.95;1.73;;;25.70;99.90;;;;;;5025207;28;20278;-89
2022/06/28 09:44:15;;;;;;;3.55;1.88;;;25.60;99.90;;;;;;4987846;28;20148;-86
2022/06/28 09:46:41;;;;;;;4.68;1.75;;;25.90;99.90;;;;;;5005672;28;20062;-88
2022/06/28 09:49:07;;;;;;;6.95;2.45;;;25.80;99.90;;;;;;5004604;28;20161;-86
2022/06/28 09:51:34;;;;;;;4.95;1.77;;;25.20;99.90;;;;;;4979153;28;20196;-86
2022/06/28 09:54:04;;;;;;;5.15;1.48;;;25.20;99.90;;;;;;4992486;28;20064;-86
2022/06/28 09:56:41;;;;;;;5.35;2.10;;;25.50;99.90;;;;;;4978109;28;20124;-88
2022/06/28 09:59:07;;;;;;;6.40;1.83;;;25.80;99.90;;;;;;4984628;28;20371;-90
2022/06/28 10:01:33;;;;;;;4.22;1.40;;;25.50;99.90;;;;;;4996898;28;20069;-89
2022/06/28 10:03:58;;;;;;;6.47;1.88;;;25.20;99.90;;;;;;5007127;28;20046;-88
2022/06/28 10:06:27;;;;;;;5.05;1.60;;;24.20;99.90;;;;;;4994044;28;20054;-89
2022/06/28 10:08:53;;;;;;;5.35;2.40;;;24.60;99.90;;;;;;4977566;28;20134;-88
2022/06/28 10:11:19;;;;;;;5.88;1.60;;;24.10;99.90;;;;;;4945672;28;20046;-91
2022/06/28 10:16:46;;;;;;;5.00;1.90;;;23.60;99.90;;;;;;4966567;28;20054;-91
2022/06/28 10:19:17;;;;;;;6.20;2.05;;;23.80;99.90;;;;;;4993766;28;20050;-89
2022/06/28 10:21:52;;;;;;;4.45;1.40;;;24.50;99.90;;;;;;4976987;28;20053;-90
2022/06/28 10:24:18;;;;;;;4.53;1.60;;;24.90;99.90;;;;;;4993387;28;20042;-89
2022/06/28 10:26:45;;;;;;;4.68;1.33;;;25.30;99.90;;;;;;4976891;28;20148;-87
2022/06/28 10:29:11;;;;;;;5.72;1.58;;;24.90;99.90;;;;;;4994069;28;20047;-87
2022/06/28 10:31:43;;;;;;;5.53;1.70;;;24.40;99.90;;;;;;4993044;28;20097;-89
2022/06/28 10:34:16;;;;;;;5.23;1.70;;;24.20;99.90;;;;;;4961555;28;20053;-89
2022/06/28 10:36:45;;;;;;;5.05;1.60;;;24.60;99.90;;;;;;4977942;28;20050;-90
2022/06/28 10:39:13;;;;;;;3.75;1.60;;;24.20;99.90;;;;;;4993256;28;20081;-88
2022/06/28 10:41:42;;;;;;;4.70;1.45;;;23.70;99.90;;;;;;4976231;28;20054;-88
2022/06/28 10:44:18;;;;;;;3.88;1.73;;;24.30;99.90;;;;;;4977186;28;20064;-89
2022/06/28 10:46:52;;;;;;;5.03;1.10;;;24.60;99.90;;;;;;4977721;28;20062;-88
2022/06/28 10:49:18;;;;;;;4.15;1.50;;;25.00;99.90;;;;;;4994028;28;20073;-89
2022/06/28 10:52:14;;;;;;;5.75;1.60;;;25.30;99.90;;;;;;4976264;28;20479;-89
2022/06/28 10:54:59;;;;;;;5.80;1.70;;;25.30;99.90;;;;;;4996033;28;20054;-86
2022/06/28 10:57:34;;;;;;;7.20;1.98;;;25.90;99.90;;;;;;4998852;28;20054;-87
2022/06/28 11:00:05;;;;;;;4.75;1.50;;;25.80;99.90;;;;;;4989680;28;20037;-89
2022/06/28 11:02:52;;;;;;;6.00;1.75;;;25.20;99.90;;;;;;4998447;28;20042;-89
2022/06/28 11:05:18;;;;;;;5.13;2.20;;;25.70;99.90;;;;;;5016775;28;20065;-88
2022/06/28 11:08:04;;;;;;;3.58;1.30;;;24.80;99.90;;;;;;5003369;28;20124;-88
2022/06/28 11:10:30;;;;;;;6.28;1.50;;;24.50;99.90;;;;;;4975781;28;20449;-89
2022/06/28 11:13:18;;;;;;;7.00;1.90;;;24.10;99.90;;;;;;4975882;28;20049;-87
2022/06/28 11:15:44;;;;;;;7.32;1.75;;;24.70;99.90;;;;;;4991774;28;20406;-89
2022/06/28 11:18:23;;;;;;;4.65;1.60;;;25.20;99.90;;;;;;4976340;28;20042;-88
2022/06/28 11:20:50;;;;;;;4.40;1.67;;;25.30;99.90;;;;;;4976681;28;20054;-88
2022/06/28 11:23:26;;;;;;;4.53;1.50;;;25.70;99.90;;;;;;4976348;28;20152;-88
2022/06/28 11:28:53;;;;;;;4.88;1.90;;;24.30;99.90;;;;;;4977827;28;20482;-88
2022/06/28 11:31:18;;;;;;;4.05;1.30;;;24.20;99.90;;;;;;4976011;28;20137;-89
2022/06/28 11:33:45;;;;;;;5.88;1.42;;;23.90;99.90;;;;;;4975799;28;20129;-90
2022/06/28 11:36:31;;;;;;;5.72;1.60;;;22.90;99.90;;;;;;4943595;28;20046;-87
2022/06/28 11:39:23;;;;;;;4.38;1.45;;;23.10;99.90;;;;;;4992181;28;20495;-89
2022/06/28 11:41:53;;;;;;;2.63;1.35;;;23.00;99.90;;;;;;4972431;28;20421;-91
2022/06/28 11:44:19;;;;;;;5.82;1.50;;;23.40;99.90;;;;;;4976224;28;20113;-88
2022/06/28 11:46:46;;;;;;;4.32;1.45;;;23.50;99.90;;;;;;4975668;28;20058;-89
2022/06/28 11:49:11;;;;;;;2.58;1.20;;;23.00;99.90;;;;;;4959463;28;20038;-89
2022/06/28 11:51:40;;;;;;;4.90;1.40;;;23.10;99.90;;;;;;4991826;28;20049;-91
2022/06/28 11:54:06;;;;;;;4.80;1.50;;;23.00;99.90;;;;;;4976239;28;20050;-89
2022/06/28 11:56:45;;;;;;;3.50;1.40;;;23.10;99.90;;;;;;4959841;28;20046;-88
2022/06/28 11:59:11;;;;;;;7.68;1.50;;;23.70;99.90;;;;;;4975851;28;20050;-89
2022/06/28 12:01:38;;;;;;;6.18;1.30;;;23.70;99.90;;;;;;4960169;28;20144;-89
2022/06/28 12:04:06;;;;;;;6.45;1.50;;;23.30;99.90;;;;;;4974788;28;20050;-88
2022/06/28 12:06:33;;;;;;;6.25;1.33;;;23.20;99.90;;;;;;4959676;28;20050;-89
2022/06/28 12:09:02;;;;;;;4.68;1.38;;;23.60;99.90;;;;;;4991555;28;20177;-88
2022/06/28 12:11:47;;;;;;;3.65;1.10;;;23.90;99.90;;;;;;4992623;28;20086;-87
2022/06/28 12:14:32;;;;;;;3.75;1.02;;;24.20;99.90;;;;;;4961128;28;20391;-88
2022/06/28 12:17:02;;;;;;;5.03;1.30;;;24.30;99.90;;;;;;4959373;28;20487;-87
2022/06/28 12:19:29;;;;;;;7.18;1.30;;;24.50;99.90;;;;;;4991764;28;20054;-88
2022/06/28 12:22:07;;;;;;;5.45;1.13;;;24.40;99.90;;;;;;4975011;28;20065;-90
2022/06/28 12:24:54;;;;;;;4.75;1.30;;;24.40;99.90;;;;;;5011168;28;20491;-87
2022/06/28 12:27:39;;;;;;;3.78;1.50;;;24.60;99.90;;;;;;4998308;28;20034;-90
2022/06/28 12:30:06;;;;;;;3.60;1.17;;;24.80;99.90;;;;;;4998795;28;20064;-89
2022/06/28 12:32:32;;;;;;;6.18;1.45;;;24.60;98.80;;;;;;4978620;28;20046;-89
2022/06/28 12:35:00;;;;;;;6.25;2.03;;;25.90;99.90;;;;;;4974953;28;20112;-89
2022/06/28 12:37:25;;;;;;;4.85;1.70;;;24.80;99.90;;;;;;4959019;28;20133;-87
2022/06/28 12:39:52;;;;;;;5.00;1.52;;;24.90;99.90;;;;;;4974860;28;20129;-87
2022/06/28 12:42:17;;;;;;;4.13;1.30;;;25.10;99.90;;;;;;4992719;28;20195;-88
2022/06/28 12:44:43;;;;;;;4.82;1.27;;;24.80;99.70;;;;;;4991261;28;20138;-91
2022/06/28 12:47:09;;;;;;;3.70;1.20;;;24.70;99.90;;;;;;4991596;28;20049;-89
2022/06/28 12:49:35;;;;;;;4.32;1.20;;;24.50;99.90;;;;;;4992413;28;20125;-89
2022/06/28 12:52:01;;;;;;;3.67;1.08;;;24.40;99.90;;;;;;4975097;28;20158;-88
2022/06/28 12:54:26;;;;;;;2.33;1.30;;;23.90;99.90;;;;;;4978149;28;20466;-91
2022/06/28 12:56:52;;;;;;;3.55;1.52;;;23.90;99.90;;;;;;5009856;28;20521;-87